Time;durP1;ratioP1;P1;durP2;ratioP2;P2;SDS_P1;SDS_P2;PMS_P1;PMS_P2;Temp;Humidity;BMP_temperature;BMP_pressure;BME280_temperature;BME280_humidity;BME280_pressure;Samples;Min_cycle;Max_cycle;Signal;HPM_P1;HPM_P2
2022/10/06 00:00:30;;;;;;;34.53;32.50;;;;;;;18.11;58.49;102083.59;5013807;28;20057;-75
2022/10/06 00:02:56;;;;;;;35.45;32.83;;;;;;;18.09;58.66;102084.94;5005770;28;20030;-75
2022/10/06 00:05:21;;;;;;;34.70;32.90;;;;;;;18.08;58.69;102088.78;5007328;28;20037;-75
2022/10/06 00:07:47;;;;;;;35.30;33.38;;;;;;;18.07;58.98;102100.81;5014005;28;20880;-75
2022/10/06 00:10:12;;;;;;;36.58;34.50;;;;;;;18.04;58.62;102104.88;5004436;28;20042;-75
2022/10/06 00:12:49;;;;;;;35.72;33.72;;;;;;;18.02;58.29;102109.78;4999668;28;20029;-75
2022/10/06 00:15:19;;;;;;;34.22;32.28;;;;;;;18.01;58.78;102110.03;5010813;28;20049;-75
2022/10/06 00:17:44;;;;;;;35.22;33.13;;;;;;;17.99;58.50;102121.22;4995015;28;20391;-75
2022/10/06 00:20:10;;;;;;;36.72;34.67;;;;;;;17.98;58.36;102116.03;5001545;28;20562;-75
2022/10/06 00:22:42;;;;;;;32.03;30.13;;;;;;;17.96;58.42;102121.72;4996105;28;20125;-75
2022/10/06 00:25:10;;;;;;;34.75;32.85;;;;;;;17.94;58.62;102129.38;5014392;28;20485;-74
2022/10/06 00:27:37;;;;;;;30.90;29.27;;;;;;;17.92;58.51;102137.03;5013397;28;20498;-74
2022/10/06 00:30:06;;;;;;;34.33;31.75;;;;;;;17.90;58.22;102141.91;5000343;28;20120;-75
2022/10/06 00:32:31;;;;;;;31.55;29.40;;;;;;;17.88;58.29;102144.06;4977801;28;20034;-74
2022/10/06 00:35:00;;;;;;;34.45;32.13;;;;;;;17.87;58.70;102145.16;4998860;28;20096;-73
2022/10/06 00:37:27;;;;;;;32.15;30.02;;;;;;;17.85;58.21;102147.34;4999290;28;20026;-74
2022/10/06 00:39:53;;;;;;;32.40;30.70;;;;;;;17.83;58.14;102147.56;5010179;28;20042;-74
2022/10/06 00:42:30;;;;;;;34.13;31.88;;;;;;;17.82;58.24;102139.66;4994877;28;20089;-74
2022/10/06 00:45:01;;;;;;;33.60;31.83;;;;;;;17.79;58.22;102149.16;4994751;28;20072;-75
2022/10/06 00:47:29;;;;;;;32.38;30.27;;;;;;;17.78;58.55;102163.06;5004822;28;20034;-75
2022/10/06 00:49:55;;;;;;;;;;;;;;;17.78;58.08;102165.81;5013158;28;20069;-74
2022/10/06 00:52:26;;;;;;;30.55;28.65;;;;;;;17.73;58.54;102161.91;5013977;28;19960;-74
2022/10/06 00:54:51;;;;;;;33.65;31.08;;;;;;;17.72;58.32;102159.47;5012624;28;20034;-74
2022/10/06 00:57:19;;;;;;;33.15;31.05;;;;;;;17.70;58.26;102178.00;5007010;28;20101;-74
2022/10/06 00:59:45;;;;;;;33.05;30.75;;;;;;;17.69;58.37;102179.13;5014012;28;20030;-74
2022/10/06 01:02:34;;;;;;;33.22;31.42;;;;;;;17.67;58.15;102186.72;5007395;28;20081;-74
2022/10/06 01:05:02;;;;;;;31.23;29.65;;;;;;;17.66;58.52;102194.09;4996235;28;20031;-75
2022/10/06 01:07:29;;;;;;;31.00;29.17;;;;;;;17.64;58.37;102193.53;5013216;28;20111;-75
2022/10/06 01:09:56;;;;;;;30.40;28.58;;;;;;;17.62;58.41;102205.81;5012537;28;20285;-74
2022/10/06 01:12:23;;;;;;;31.45;29.85;;;;;;;17.60;58.26;102208.78;5012535;28;20036;-74
2022/10/06 01:14:48;;;;;;;32.08;30.38;;;;;;;17.58;58.35;102208.19;5006502;28;20041;-75
2022/10/06 01:17:36;;;;;;;32.83;30.90;;;;;;;17.56;58.23;102210.34;5005917;28;20038;-74
2022/10/06 01:20:08;;;;;;;32.83;31.00;;;;;;;17.53;58.39;102214.41;5013160;28;20022;-74
2022/10/06 01:22:36;;;;;;;31.48;29.55;;;;;;;17.53;58.05;102219.06;4996478;28;20034;-74
2022/10/06 01:25:04;;;;;;;31.67;29.75;;;;;;;17.51;57.95;102221.22;5005180;28;20030;-75
2022/10/06 01:27:31;;;;;;;32.20;30.38;;;;;;;17.50;58.48;102231.31;5011869;28;20101;-75
2022/10/06 01:29:58;;;;;;;31.90;30.05;;;;;;;17.47;58.14;102229.09;5007701;28;20089;-75
2022/10/06 01:32:26;;;;;;;33.30;31.00;;;;;;;17.46;58.41;102237.53;4994959;28;20053;-75
2022/10/06 01:34:51;;;;;;;31.02;29.30;;;;;;;17.45;58.46;102233.97;5001580;28;20034;-75
2022/10/06 01:37:17;;;;;;;33.85;31.80;;;;;;;17.43;58.44;102241.59;5004318;28;20040;-75
2022/10/06 01:39:43;;;;;;;33.22;31.35;;;;;;;17.42;58.39;102247.34;5013153;28;20065;-74
2022/10/06 01:42:09;;;;;;;32.53;30.40;;;;;;;17.41;58.32;102253.84;5007261;28;20041;-75
2022/10/06 01:44:35;;;;;;;30.73;28.95;;;;;;;17.39;58.38;102251.41;5012246;28;20036;-75
2022/10/06 01:47:03;;;;;;;31.10;29.08;;;;;;;17.37;58.38;102250.81;5011635;28;20449;-75
2022/10/06 01:49:29;;;;;;;;;;;;;;;17.36;58.29;102254.63;5012420;28;20041;-75
2022/10/06 01:51:54;;;;;;;28.83;27.23;;;;;;;17.33;58.01;102254.28;4997205;28;20314;-75
2022/10/06 01:54:19;;;;;;;32.28;29.70;;;;;;;17.30;57.94;102253.72;5004459;28;20061;-75
2022/10/06 01:56:45;;;;;;;30.23;28.08;;;;;;;17.30;58.31;102266.56;4993532;28;20038;-75
2022/10/06 01:59:10;;;;;;;30.25;28.58;;;;;;;17.28;58.05;102274.16;4992939;28;20038;-75
2022/10/06 02:01:35;;;;;;;32.20;29.98;;;;;;;17.26;58.09;102274.44;4996781;28;20137;-73
2022/10/06 02:04:01;;;;;;;31.95;29.70;;;;;;;17.24;58.28;102271.13;5012438;28;20034;-75
2022/10/06 02:06:27;;;;;;;30.90;29.10;;;;;;;17.23;57.98;102271.34;5011489;28;20087;-75
2022/10/06 02:08:53;;;;;;;32.13;29.60;;;;;;;17.21;58.39;102268.03;5012519;28;20030;-75
2022/10/06 02:11:18;;;;;;;32.47;30.35;;;;;;;17.19;58.21;102276.50;4993239;28;20036;-76
2022/10/06 02:13:44;;;;;;;30.00;28.30;;;;;;;17.18;57.85;102287.66;4992616;28;20038;-75
2022/10/06 02:16:12;;;;;;;32.30;29.58;;;;;;;17.16;58.30;102287.94;4994764;28;20530;-75
2022/10/06 02:18:38;;;;;;;31.33;29.13;;;;;;;17.15;57.86;102285.44;5012630;28;20021;-75
2022/10/06 02:21:03;;;;;;;29.63;27.45;;;;;;;17.14;58.21;102297.44;4992955;28;20038;-75
2022/10/06 02:23:29;;;;;;;29.73;28.13;;;;;;;17.12;57.81;102302.31;4991849;28;20121;-75
2022/10/06 02:25:59;;;;;;;32.17;29.25;;;;;;;17.10;57.91;102305.28;4993068;28;20030;-75
2022/10/06 02:28:25;;;;;;;30.35;28.55;;;;;;;17.08;57.87;102307.44;5006008;28;20332;-73
2022/10/06 02:30:50;;;;;;;29.35;27.48;;;;;;;17.08;57.79;102318.34;5001564;28;20045;-75
2022/10/06 02:33:16;;;;;;;30.35;28.33;;;;;;;17.06;58.04;102315.06;5011923;28;20111;-75
2022/10/06 02:35:42;;;;;;;31.48;28.73;;;;;;;17.04;57.84;102312.56;4995916;28;20042;-75
2022/10/06 02:38:08;;;;;;;31.63;29.42;;;;;;;17.03;58.13;102318.28;5010581;28;20144;-75
2022/10/06 02:40:34;;;;;;;30.40;28.83;;;;;;;17.01;57.88;102317.69;5012081;28;20117;-75
2022/10/06 02:42:59;;;;;;;29.95;27.92;;;;;;;16.99;57.96;102333.50;4994625;28;20065;-75
2022/10/06 02:45:25;;;;;;;30.30;28.70;;;;;;;16.98;57.76;102329.09;4993722;28;20037;-75
2022/10/06 02:47:53;;;;;;;30.75;28.90;;;;;;;16.98;58.03;102337.28;5008204;28;20030;-74
2022/10/06 02:50:18;;;;;;;33.13;30.73;;;;;;;16.95;58.02;102341.34;5010346;28;20117;-74
2022/10/06 02:52:44;;;;;;;30.20;28.33;;;;;;;16.93;57.72;102346.22;5006967;28;20184;-74
2022/10/06 02:55:10;;;;;;;30.23;28.35;;;;;;;16.93;57.96;102342.66;5009561;28;20030;-74
2022/10/06 02:57:36;;;;;;;30.92;29.05;;;;;;;16.92;57.83;102354.66;5011690;28;20406;-73
2022/10/06 03:00:04;;;;;;;30.60;28.80;;;;;;;16.91;58.00;102355.72;5011681;28;20030;-74
2022/10/06 03:02:29;;;;;;;28.75;26.85;;;;;;;16.89;57.93;102355.16;5007857;28;20030;-74
2022/10/06 03:04:55;;;;;;;29.40;27.85;;;;;;;16.87;57.96;102363.59;5010004;28;20149;-74
2022/10/06 03:07:20;;;;;;;30.63;29.02;;;;;;;16.86;57.74;102370.13;4993441;28;20474;-74
2022/10/06 03:09:45;;;;;;;30.13;28.52;;;;;;;16.84;57.88;102366.81;4998007;28;20360;-74
2022/10/06 03:12:11;;;;;;;29.90;28.10;;;;;;;16.83;58.19;102367.88;4990640;28;20168;-74
2022/10/06 03:14:36;;;;;;;30.25;28.33;;;;;;;16.81;57.97;102368.13;4983678;28;20037;-74
2022/10/06 03:17:02;;;;;;;29.30;27.40;;;;;;;16.81;57.59;102375.50;4992293;28;20037;-74
2022/10/06 03:19:28;;;;;;;30.27;28.50;;;;;;;16.80;57.67;102379.28;4994141;28;20034;-74
2022/10/06 03:21:53;;;;;;;30.17;28.45;;;;;;;16.77;57.82;102383.28;5003735;28;20546;-74
2022/10/06 03:24:19;;;;;;;32.53;29.80;;;;;;;16.75;57.62;102385.44;5009598;28;20029;-74
2022/10/06 03:26:46;;;;;;;29.95;27.77;;;;;;;16.74;58.17;102385.69;4997415;28;20062;-74
2022/10/06 03:29:12;;;;;;;29.90;28.20;;;;;;;16.72;58.08;102399.56;4997102;28;20483;-74
2022/10/06 03:31:38;;;;;;;31.10;28.85;;;;;;;16.70;57.95;102387.25;5011507;28;20058;-74
2022/10/06 03:34:04;;;;;;;29.48;27.67;;;;;;;16.68;57.76;102395.66;5012802;28;20026;-74
2022/10/06 03:36:32;;;;;;;29.50;27.75;;;;;;;16.66;57.58;102398.66;5008433;28;20037;-74
2022/10/06 03:38:58;;;;;;;29.75;27.90;;;;;;;16.65;57.96;102398.88;5008236;28;20038;-74
2022/10/06 03:41:26;;;;;;;30.75;28.73;;;;;;;16.62;57.79;102402.09;5005476;28;20034;-74
2022/10/06 03:43:54;;;;;;;28.87;27.00;;;;;;;16.61;57.66;102408.66;5014492;28;20026;-74
2022/10/06 03:46:24;;;;;;;30.83;28.70;;;;;;;16.58;57.64;102414.56;5013202;28;20033;-75
2022/10/06 03:48:51;;;;;;;29.70;27.83;;;;;;;16.57;58.10;102415.66;5014027;28;20030;-74
2022/10/06 03:51:26;;;;;;;30.05;28.42;;;;;;;16.55;57.85;102418.59;4992647;28;20049;-74
2022/10/06 03:53:52;;;;;;;29.63;28.13;;;;;;;16.54;58.02;102419.69;5008548;28;20489;-74
2022/10/06 03:56:17;;;;;;;28.67;27.08;;;;;;;16.53;57.72;102428.09;5014519;28;20052;-74
2022/10/06 03:58:45;;;;;;;29.60;27.90;;;;;;;16.50;57.89;102429.41;5015050;28;20470;-73
2022/10/06 04:01:18;;;;;;;29.27;27.33;;;;;;;16.49;57.69;102435.94;5000268;28;20042;-74
2022/10/06 04:03:44;;;;;;;29.58;27.27;;;;;;;16.48;57.91;102444.38;4996139;28;20124;-74
2022/10/06 04:06:16;;;;;;;28.55;26.88;;;;;;;16.47;57.88;102450.91;4995687;28;20121;-74
2022/10/06 04:08:42;;;;;;;29.42;27.58;;;;;;;16.45;57.75;102451.13;4998433;28;20590;-74
2022/10/06 04:11:20;;;;;;;31.27;29.10;;;;;;;16.42;57.66;102452.44;5008944;28;20110;-74
2022/10/06 04:13:46;;;;;;;29.95;27.63;;;;;;;16.41;57.66;102455.44;5000228;28;20030;-74
2022/10/06 04:16:21;;;;;;;28.40;26.60;;;;;;;16.40;57.72;102467.38;5014788;28;20034;-74
2022/10/06 04:18:51;;;;;;;30.90;29.17;;;;;;;16.37;57.90;102468.69;5000508;28;20038;-74
2022/10/06 04:21:17;;;;;;;28.35;26.65;;;;;;;16.36;57.85;102472.50;5004412;28;20042;-74
2022/10/06 04:23:43;;;;;;;29.63;27.52;;;;;;;16.34;58.07;102471.91;4994448;28;20033;-74
2022/10/06 04:26:14;;;;;;;29.75;27.42;;;;;;;16.34;57.91;102471.09;4997453;28;20045;-74
2022/10/06 04:28:42;;;;;;;28.80;27.10;;;;;;;16.32;57.75;102476.75;4998291;28;20038;-74
2022/10/06 04:31:18;;;;;;;28.73;26.38;;;;;;;16.31;57.68;102482.47;4981673;28;20030;-74
2022/10/06 04:33:45;;;;;;;28.35;26.77;;;;;;;16.28;58.02;102480.19;5007226;28;20504;-74
2022/10/06 04:36:14;;;;;;;28.38;26.75;;;;;;;16.26;57.97;102491.38;5008105;28;20379;-74
2022/10/06 04:38:39;;;;;;;27.42;25.42;;;;;;;16.26;57.79;102490.53;5006983;28;20042;-74
2022/10/06 04:41:07;;;;;;;28.60;26.52;;;;;;;16.23;57.69;102495.41;5005967;28;20034;-74
2022/10/06 04:43:33;;;;;;;29.33;27.00;;;;;;;16.21;57.93;102493.97;5013461;28;20026;-75
2022/10/06 04:45:59;;;;;;;26.67;25.05;;;;;;;16.20;57.84;102492.31;5011466;28;20042;-74
2022/10/06 04:48:25;;;;;;;27.58;25.73;;;;;;;16.19;57.64;102496.94;5003467;28;20161;-74
2022/10/06 04:50:59;;;;;;;28.23;26.52;;;;;;;16.17;57.93;102509.97;5006833;28;20089;-75
2022/10/06 04:53:25;;;;;;;27.92;26.02;;;;;;;16.17;57.69;102509.13;4994585;28;20026;-74
2022/10/06 04:56:02;;;;;;;28.42;26.67;;;;;;;16.15;57.90;102511.25;4994753;28;20050;-74
2022/10/06 04:58:32;;;;;;;27.35;25.70;;;;;;;16.13;58.05;102514.25;5000385;28;20043;-76
2022/10/06 05:00:59;;;;;;;27.05;25.17;;;;;;;16.11;57.98;102518.28;5009140;28;20041;-76
2022/10/06 05:03:25;;;;;;;27.95;26.23;;;;;;;16.10;57.74;102522.91;4994430;28;20125;-76
2022/10/06 05:05:50;;;;;;;28.65;26.33;;;;;;;16.09;57.83;102531.31;5013255;28;20057;-76
2022/10/06 05:08:16;;;;;;;28.52;26.70;;;;;;;16.07;57.95;102530.72;5006564;28;20494;-76
2022/10/06 05:10:41;;;;;;;28.63;26.67;;;;;;;16.06;57.82;102534.50;4998374;28;20081;-75
2022/10/06 05:13:10;;;;;;;27.15;25.58;;;;;;;16.04;57.74;102536.63;4994208;28;20038;-75
2022/10/06 05:15:36;;;;;;;30.98;28.63;;;;;;;16.02;57.69;102542.31;5005703;28;20368;-76
2022/10/06 05:18:02;;;;;;;26.73;24.90;;;;;;;16.00;57.47;102539.84;5012352;28;20133;-73
2022/10/06 05:20:27;;;;;;;29.92;27.45;;;;;;;15.98;57.76;102543.88;5009000;28;20375;-76
2022/10/06 05:22:53;;;;;;;27.23;25.38;;;;;;;15.97;57.61;102550.38;5012524;28;20108;-76
2022/10/06 05:25:18;;;;;;;27.70;26.00;;;;;;;15.96;57.67;102557.72;4995691;28;20038;-73
2022/10/06 05:27:43;;;;;;;27.02;24.75;;;;;;;15.94;57.90;102559.84;5011109;28;20057;-75
2022/10/06 05:30:09;;;;;;;27.77;26.02;;;;;;;15.92;57.74;102569.31;4998007;28;20061;-74
2022/10/06 05:32:35;;;;;;;28.40;25.58;;;;;;;15.90;57.93;102575.03;4992045;28;20038;-76
2022/10/06 05:35:01;;;;;;;27.35;25.65;;;;;;;15.89;57.82;102578.78;4990434;28;20042;-75
2022/10/06 05:37:26;;;;;;;28.38;26.35;;;;;;;15.87;57.92;102580.91;4991318;28;20474;-75
2022/10/06 05:39:51;;;;;;;28.75;26.33;;;;;;;15.86;57.55;102589.34;5006675;28;20073;-75
2022/10/06 05:42:17;;;;;;;28.40;26.42;;;;;;;15.85;57.91;102590.38;4995424;28;20031;-75
2022/10/06 05:44:42;;;;;;;29.05;27.35;;;;;;;15.83;57.74;102598.00;5008232;28;20364;-75
2022/10/06 05:47:07;;;;;;;27.85;25.70;;;;;;;15.81;57.53;102600.94;4990436;28;20042;-75
2022/10/06 05:49:33;;;;;;;28.95;27.25;;;;;;;15.78;57.86;102604.94;4989481;28;20434;-75
2022/10/06 05:51:59;;;;;;;29.17;27.27;;;;;;;15.78;57.60;102609.59;4992017;28;20042;-75
2022/10/06 05:54:25;;;;;;;27.50;26.10;;;;;;;15.76;57.56;102603.53;4990625;28;20037;-75
2022/10/06 05:56:50;;;;;;;41.10;26.38;;;;;;;15.74;57.91;102605.66;5001379;28;20030;-75
2022/10/06 05:59:15;;;;;;;26.85;24.65;;;;;;;15.73;57.92;102613.00;4988208;28;20046;-75
2022/10/06 06:01:42;;;;;;;27.50;25.67;;;;;;;15.72;57.61;102610.50;4972434;28;20038;-75
2022/10/06 06:04:11;;;;;;;28.05;25.10;;;;;;;15.70;57.67;102615.34;4994245;28;20386;-76
2022/10/06 06:06:40;;;;;;;;;;;;;;;15.69;57.74;102621.81;4992127;28;20530;-76
2022/10/06 06:09:08;;;;;;;25.25;23.77;;;;;;;15.66;57.62;102625.00;5006448;28;19910;-75
2022/10/06 06:11:36;;;;;;;27.25;24.92;;;;;;;15.63;57.84;102628.22;4998010;28;20060;-75
2022/10/06 06:14:04;;;;;;;27.27;25.60;;;;;;;15.61;57.53;102625.69;4992410;28;20467;-76
2022/10/06 06:16:31;;;;;;;28.27;26.40;;;;;;;15.61;57.68;102630.31;4996895;28;20037;-75
2022/10/06 06:18:56;;;;;;;27.02;25.52;;;;;;;15.58;58.01;102635.16;4996428;28;20320;-75
2022/10/06 06:21:22;;;;;;;26.13;24.42;;;;;;;15.57;57.86;102633.50;4997076;28;20074;-75
2022/10/06 06:23:49;;;;;;;27.77;25.75;;;;;;;15.56;58.06;102636.47;4992729;28;20066;-71
2022/10/06 06:26:24;;;;;;;28.25;26.23;;;;;;;15.54;58.15;102631.22;4998327;28;20438;-72
2022/10/06 06:28:50;;;;;;;29.98;27.90;;;;;;;15.52;57.45;102644.28;5001247;28;20037;-76
2022/10/06 06:31:18;;;;;;;27.20;25.40;;;;;;;15.51;57.71;102644.50;5003913;28;20030;-76
2022/10/06 06:33:43;;;;;;;28.98;26.42;;;;;;;15.50;57.54;102654.56;5008198;28;20038;-76
2022/10/06 06:36:13;;;;;;;31.05;28.17;;;;;;;15.48;57.75;102653.94;5004764;28;20045;-75
2022/10/06 06:38:38;;;;;;;29.05;27.13;;;;;;;15.46;57.67;102660.69;5009988;28;20041;-76
2022/10/06 06:41:04;;;;;;;27.08;25.23;;;;;;;15.45;57.95;102654.41;5013980;28;20046;-75
2022/10/06 06:43:29;;;;;;;27.63;25.75;;;;;;;15.44;57.48;102662.81;5016961;28;20045;-75
2022/10/06 06:46:03;;;;;;;26.40;24.45;;;;;;;15.42;57.72;102664.91;5017558;28;20046;-76
2022/10/06 06:48:28;;;;;;;27.58;25.88;;;;;;;15.41;57.48;102668.72;5015188;28;20086;-76
2022/10/06 06:50:56;;;;;;;26.02;24.42;;;;;;;15.39;57.86;102679.81;5017027;28;20568;-75
2022/10/06 06:53:21;;;;;;;28.45;26.30;;;;;;;15.37;58.01;102676.47;5017426;28;20034;-76
2022/10/06 06:55:49;;;;;;;29.58;27.27;;;;;;;15.37;57.67;102695.53;5008424;28;20053;-76
2022/10/06 06:58:16;;;;;;;29.05;26.55;;;;;;;15.35;57.67;102695.78;5009269;28;20038;-77
2022/10/06 07:00:41;;;;;;;26.63;25.02;;;;;;;15.35;57.99;102697.69;5005154;28;20042;-77
2022/10/06 07:03:11;;;;;;;28.05;25.88;;;;;;;15.33;57.54;102694.34;5011048;28;20041;-78
2022/10/06 07:05:38;;;;;;;25.55;23.73;;;;;;;15.33;57.99;102705.25;5013023;28;20041;-78
2022/10/06 07:08:07;;;;;;;27.35;25.40;;;;;;;15.30;57.93;102703.81;5016995;28;20141;-77
2022/10/06 07:10:35;;;;;;;26.55;24.50;;;;;;;15.30;57.66;102698.38;5020432;28;20041;-76
2022/10/06 07:13:00;;;;;;;25.63;24.08;;;;;;;15.28;57.94;102708.63;5020104;28;20108;-76
2022/10/06 07:26:21;;;;;;;26.63;24.67;;;;;;;15.21;57.64;102731.56;5008804;28;20052;-76
2022/10/06 07:28:48;;;;;;;27.73;25.25;;;;;;;15.20;58.13;102738.06;5004928;28;20029;-76
2022/10/06 07:31:17;;;;;;;26.65;25.15;;;;;;;15.19;57.69;102736.38;5010188;28;20042;-78
2022/10/06 07:33:43;;;;;;;27.98;25.90;;;;;;;15.18;58.05;102742.91;5010975;28;20137;-78
2022/10/06 07:36:10;;;;;;;29.13;26.73;;;;;;;15.17;57.95;102752.97;5006804;28;20092;-76
2022/10/06 07:38:36;;;;;;;26.23;24.52;;;;;;;15.17;57.95;102752.09;5008064;28;20040;-78
2022/10/06 07:41:01;;;;;;;26.52;24.75;;;;;;;15.14;57.84;102751.53;5007602;28;20237;-80
2022/10/06 07:43:27;;;;;;;28.35;25.58;;;;;;;15.14;58.25;102767.00;5012801;28;20530;-79
2022/10/06 07:45:52;;;;;;;27.77;25.92;;;;;;;15.13;57.99;102755.28;5007911;28;20084;-79
2022/10/06 07:48:20;;;;;;;27.50;25.65;;;;;;;15.12;57.79;102769.97;4993219;28;20475;-78
2022/10/06 07:50:48;;;;;;;26.70;24.90;;;;;;;15.12;58.24;102764.50;5010202;28;20029;-78
2022/10/06 07:53:15;;;;;;;27.95;25.52;;;;;;;15.11;57.79;102772.88;5006204;28;20049;-79
2022/10/06 07:55:44;;;;;;;25.65;23.77;;;;;;;15.09;58.08;102775.84;5009195;28;20034;-78
2022/10/06 07:58:17;;;;;;;28.00;25.92;;;;;;;15.09;57.96;102777.72;5003026;28;20095;-77
2022/10/06 08:00:44;;;;;;;26.48;24.70;;;;;;;15.07;57.66;102783.41;5005588;28;20100;-77
2022/10/06 08:03:11;;;;;;;25.48;23.42;;;;;;;15.07;57.96;102780.69;5009084;28;20435;-77
2022/10/06 08:05:38;;;;;;;27.23;24.90;;;;;;;15.06;57.99;102797.22;5009169;28;20036;-77
2022/10/06 08:08:04;;;;;;;26.75;24.95;;;;;;;15.06;57.95;102792.59;5009405;28;20261;-77
2022/10/06 08:10:29;;;;;;;27.08;25.48;;;;;;;15.06;58.22;102795.34;5005239;28;20489;-77
2022/10/06 08:12:55;;;;;;;26.83;24.85;;;;;;;15.05;58.42;102796.41;5002735;28;20053;-77
2022/10/06 08:15:20;;;;;;;25.27;23.58;;;;;;;15.04;58.21;102794.72;5005251;28;20399;-76
2022/10/06 08:17:46;;;;;;;25.35;23.50;;;;;;;15.03;58.17;102803.13;5008789;28;20041;-79
2022/10/06 08:20:12;;;;;;;26.92;25.13;;;;;;;15.03;58.18;102808.56;5008613;28;20056;-77
2022/10/06 08:22:39;;;;;;;27.05;24.95;;;;;;;15.02;58.10;102809.59;5006947;28;20114;-77
2022/10/06 08:25:06;;;;;;;27.08;25.50;;;;;;;15.01;58.18;102806.06;5010118;28;20025;-77
2022/10/06 08:27:33;;;;;;;26.67;25.00;;;;;;;15.01;58.32;102816.94;5007327;28;20497;-77
2022/10/06 08:29:58;;;;;;;28.20;26.00;;;;;;;15.00;58.12;102815.28;5005426;28;20058;-77
2022/10/06 08:32:24;;;;;;;28.17;25.67;;;;;;;15.00;58.27;102817.19;5004992;28;20546;-77
2022/10/06 08:34:49;;;;;;;25.88;24.15;;;;;;;14.98;58.48;102820.09;5009127;28;20038;-77
2022/10/06 08:37:22;;;;;;;26.80;25.38;;;;;;;14.99;58.32;102820.94;5008945;28;20034;-77
2022/10/06 08:39:51;;;;;;;27.15;25.20;;;;;;;14.98;58.36;102828.28;5007027;28;20052;-76
2022/10/06 08:42:41;;;;;;;27.45;25.35;;;;;;;14.98;58.15;102824.72;5000901;28;20112;-77
2022/10/06 08:45:34;;;;;;;26.38;24.00;;;;;;;14.97;58.18;102829.34;4999842;28;20030;-77
2022/10/06 08:48:08;;;;;;;28.90;26.60;;;;;;;14.97;58.41;102825.75;5007925;28;20093;-77
2022/10/06 08:50:50;;;;;;;25.08;23.15;;;;;;;14.96;58.59;102829.56;5005070;28;20032;-77
2022/10/06 08:53:37;;;;;;;26.45;24.63;;;;;;;14.96;58.64;102835.00;5007138;28;20453;-78
2022/10/06 08:56:11;;;;;;;27.83;25.55;;;;;;;14.95;58.64;102836.88;4993053;28;20042;-77
2022/10/06 08:58:52;;;;;;;25.40;23.48;;;;;;;14.95;58.58;102836.88;5007862;28;20103;-78
2022/10/06 09:01:24;;;;;;;26.77;24.75;;;;;;;14.94;58.24;102835.19;5008349;28;20112;-78
2022/10/06 09:04:00;;;;;;;25.92;24.17;;;;;;;14.93;58.44;102842.53;5006342;28;20103;-79
2022/10/06 09:06:45;;;;;;;27.23;25.15;;;;;;;14.92;58.61;102851.75;5008998;28;20045;-79
2022/10/06 09:09:32;;;;;;;24.70;22.95;;;;;;;14.92;58.63;102856.38;5000633;28;20041;-79
2022/10/06 09:12:16;;;;;;;28.40;25.90;;;;;;;14.92;58.84;102842.78;5007767;28;20038;-78
2022/10/06 09:14:48;;;;;;;25.08;23.42;;;;;;;14.91;58.80;102850.09;5007912;28;20025;-78
2022/10/06 09:17:31;;;;;;;26.15;24.45;;;;;;;14.93;58.79;102855.31;5020700;28;20451;-78
2022/10/06 09:20:25;;;;;;;25.35;23.52;;;;;;;14.95;58.39;102868.72;5009875;28;20036;-78
2022/10/06 09:22:55;;;;;;;24.30;22.77;;;;;;;14.93;58.57;102868.91;5006732;28;20112;-78
2022/10/06 09:25:26;;;;;;;26.08;24.40;;;;;;;14.94;58.46;102876.03;5005122;28;20121;-78
2022/10/06 09:27:54;;;;;;;25.45;23.95;;;;;;;14.95;58.97;102882.31;5007115;28;20038;-78
2022/10/06 09:30:20;;;;;;;28.20;25.58;;;;;;;14.95;59.00;102874.97;5010438;28;20078;-78
2022/10/06 09:32:49;;;;;;;27.13;24.70;;;;;;;14.96;58.84;102886.69;5007911;28;20050;-78
2022/10/06 09:35:21;;;;;;;26.73;25.08;;;;;;;14.97;58.72;102882.91;5002870;28;20075;-78
2022/10/06 09:37:52;;;;;;;25.90;23.90;;;;;;;14.97;58.73;102893.78;5008420;28;20049;-79
2022/10/06 09:40:52;;;;;;;26.17;24.45;;;;;;;14.96;58.67;102890.25;5005840;28;20041;-79
2022/10/06 09:43:28;;;;;;;28.20;26.25;;;;;;;14.96;59.01;102887.53;5009612;28;20034;-78
2022/10/06 09:46:15;;;;;;;26.27;24.42;;;;;;;14.99;58.65;102897.13;5003628;28;20070;-79
2022/10/06 09:48:40;;;;;;;25.35;23.42;;;;;;;14.98;58.83;102887.31;5001363;28;20173;-79
2022/10/06 09:51:16;;;;;;;25.40;23.60;;;;;;;14.99;58.65;102888.97;5003179;28;20459;-79
2022/10/06 09:54:01;;;;;;;26.38;24.25;;;;;;;14.99;58.78;102897.13;5001448;28;20600;-78
2022/10/06 09:56:27;;;;;;;26.40;24.50;;;;;;;14.99;59.03;102899.84;5002799;28;20034;-78
2022/10/06 09:58:57;;;;;;;28.40;25.70;;;;;;;14.99;59.04;102900.69;5004931;28;20045;-78
2022/10/06 10:01:30;;;;;;;23.65;22.45;;;;;;;15.00;58.94;102902.38;5004460;28;20108;-78
2022/10/06 10:04:03;;;;;;;25.08;23.55;;;;;;;15.00;59.00;102902.38;5000142;28;20072;-78
2022/10/06 10:06:31;;;;;;;24.13;22.80;;;;;;;15.01;59.17;102900.47;5007347;28;20045;-79
2022/10/06 10:09:28;;;;;;;27.08;25.13;;;;;;;15.03;59.00;102901.09;5007198;28;20522;-79
2022/10/06 10:12:23;;;;;;;26.90;24.83;;;;;;;15.04;59.09;102900.84;5006943;28;20026;-78
2022/10/06 10:15:09;;;;;;;27.02;24.63;;;;;;;15.04;59.07;102894.59;5005385;28;20030;-78
2022/10/06 10:17:48;;;;;;;23.77;22.48;;;;;;;15.05;59.27;102893.56;4998771;28;20109;-78
2022/10/06 10:20:49;;;;;;;34.90;25.10;;;;;;;15.06;58.87;102897.94;5000240;28;20092;-78
2022/10/06 10:23:17;;;;;;;27.02;25.20;;;;;;;15.06;58.94;102906.94;5005123;28;20096;-78
2022/10/06 10:25:57;;;;;;;24.92;23.58;;;;;;;15.07;58.74;102905.88;5007630;28;20118;-78
2022/10/06 10:28:31;;;;;;;25.50;23.88;;;;;;;15.09;58.73;102902.94;5007145;28;20094;-79
2022/10/06 10:31:16;;;;;;;26.08;24.23;;;;;;;15.09;58.91;102903.78;5003093;28;20050;-78
2022/10/06 10:33:53;;;;;;;25.15;23.17;;;;;;;15.09;58.81;102903.78;5008544;28;20034;-78
2022/10/06 10:36:24;;;;;;;25.60;24.20;;;;;;;15.12;58.65;102902.50;5005704;28;20045;-78
2022/10/06 10:38:52;;;;;;;26.85;25.35;;;;;;;15.12;58.94;102897.06;5000802;28;20124;-78
2022/10/06 10:41:23;;;;;;;24.13;22.92;;;;;;;15.13;58.70;102891.38;4986683;28;20030;-78
2022/10/06 10:43:55;;;;;;;25.80;24.08;;;;;;;15.15;58.77;102902.06;5001287;28;20049;-78
2022/10/06 10:46:36;;;;;;;25.67;23.83;;;;;;;15.17;58.67;102893.66;5005175;28;20068;-79
2022/10/06 10:49:11;;;;;;;25.30;24.00;;;;;;;15.16;58.92;102892.84;5001527;28;20121;-78
2022/10/06 10:51:49;;;;;;;24.90;23.60;;;;;;;15.19;58.63;102897.81;5007281;28;20044;-78
2022/10/06 10:54:23;;;;;;;28.60;26.20;;;;;;;15.21;58.75;102897.63;5002004;28;20034;-77
2022/10/06 10:56:51;;;;;;;26.40;24.83;;;;;;;15.22;58.72;102900.13;5008314;28;20033;-77
2022/10/06 10:59:34;;;;;;;28.27;26.15;;;;;;;15.23;58.68;102904.50;5002818;28;20037;-78
2022/10/06 11:02:14;;;;;;;27.00;25.10;;;;;;;15.25;58.43;102907.84;5005064;28;20502;-78
2022/10/06 11:04:46;;;;;;;27.92;26.15;;;;;;;15.26;58.46;102911.41;5004604;28;20034;-78
2022/10/06 11:07:29;;;;;;;28.98;27.00;;;;;;;15.27;58.40;102905.75;5000262;28;20406;-78
2022/10/06 11:10:12;;;;;;;25.52;24.23;;;;;;;15.29;58.25;102917.22;4999764;28;20117;-78
2022/10/06 11:13:01;;;;;;;27.52;26.02;;;;;;;15.30;58.20;102918.09;5004729;28;20041;-73
2022/10/06 11:16:01;;;;;;;26.42;24.60;;;;;;;15.31;58.28;102920.56;5002713;28;20037;-76
2022/10/06 11:18:45;;;;;;;26.58;24.52;;;;;;;15.33;57.76;102918.47;4982880;28;20041;-76
2022/10/06 11:21:35;;;;;;;27.15;25.17;;;;;;;15.35;57.58;102913.63;5003632;28;20103;-76
2022/10/06 11:24:37;;;;;;;27.42;24.65;;;;;;;15.35;57.75;102920.97;5005434;28;20084;-76
2022/10/06 11:27:15;;;;;;;26.45;25.02;;;;;;;15.36;57.89;102914.47;5002683;28;20065;-77
2022/10/06 11:30:04;;;;;;;26.05;24.27;;;;;;;15.38;57.70;102912.34;5000634;28;20045;-76
2022/10/06 11:32:47;;;;;;;26.17;24.38;;;;;;;15.40;57.91;102912.16;4998333;28;20077;-76